Time;durP1;ratioP1;P1;durP2;ratioP2;P2;SDS_P1;SDS_P2;PMS_P1;PMS_P2;Temp;Humidity;BMP_temperature;BMP_pressure;BME280_temperature;BME280_humidity;BME280_pressure;Samples;Min_cycle;Max_cycle;Signal;HPM_P1;HPM_P2
2023/08/18 00:01:39;;;;;;;17.88;11.00;;;;;;;-142.75;100.00;76243.53;5026879;28;20485;-64
2023/08/18 00:04:05;;;;;;;16.60;11.18;;;;;;;-142.75;100.00;76255.34;5026296;28;20025;-64
2023/08/18 00:06:30;;;;;;;15.00;10.70;;;;;;;-142.75;100.00;76265.19;5033422;28;20082;-64
2023/08/18 00:08:55;;;;;;;14.80;10.20;;;;;;;-142.75;100.00;76275.03;5046473;28;20025;-64
2023/08/18 00:11:21;;;;;;;16.08;10.68;;;;;;;-142.75;100.00;76245.50;5046447;28;20081;-63
2023/08/18 00:13:46;;;;;;;13.80;10.07;;;;;;;-142.75;100.00;76243.53;5046987;28;20064;-64
2023/08/18 00:16:12;;;;;;;17.02;11.48;;;;;;;-142.75;100.00;76255.34;5047926;28;20028;-64
2023/08/18 00:18:38;;;;;;;15.88;11.25;;;;;;;-142.75;100.00;76255.34;5046441;28;20052;-64
2023/08/18 00:21:03;;;;;;;14.75;10.63;;;;;;;-142.75;100.00;76249.44;5046552;28;20056;-64
2023/08/18 00:23:28;;;;;;;15.15;11.05;;;;;;;-142.75;100.00;76249.44;5045861;28;20392;-64
2023/08/18 00:25:53;;;;;;;16.63;10.75;;;;;;;-142.75;100.00;76245.50;5046894;28;20446;-63
2023/08/18 00:28:19;;;;;;;14.48;10.48;;;;;;;-142.75;100.00;76239.59;5046903;28;20493;-64
2023/08/18 00:30:45;;;;;;;13.95;9.93;;;;;;;-142.75;100.00;76235.66;5046462;28;20476;-64
2023/08/18 00:33:10;;;;;;;15.98;10.85;;;;;;;-142.75;100.00;76223.84;5046147;28;20021;-64
2023/08/18 00:35:35;;;;;;;13.75;9.95;;;;;;;-142.75;100.00;76231.72;5045554;28;20033;-65
2023/08/18 00:38:01;;;;;;;14.55;9.60;;;;;;;-142.75;100.00;76221.88;5026172;28;20076;-64
2023/08/18 00:40:26;;;;;;;15.50;10.90;;;;;;;-142.75;100.00;76227.78;5025962;28;20032;-65
2023/08/18 00:42:52;;;;;;;13.40;10.23;;;;;;;-142.75;100.00;76239.59;5026302;28;20063;-63
2023/08/18 00:45:17;;;;;;;13.85;9.77;;;;;;;-142.75;100.00;76241.56;5026746;28;20026;-64
2023/08/18 00:47:43;;;;;;;13.60;10.02;;;;;;;-142.75;100.00;76253.38;5026350;28;20068;-65
2023/08/18 00:50:12;;;;;;;14.73;9.93;;;;;;;-142.75;100.00;76253.38;5026414;28;21043;-64
2023/08/18 00:52:39;;;;;;;12.45;9.23;;;;;;;-142.75;100.00;76275.03;5025913;28;20022;-64
2023/08/18 00:55:06;;;;;;;12.65;8.98;;;;;;;-142.75;100.00;76255.34;5039389;28;20052;-65
2023/08/18 00:57:33;;;;;;;12.90;8.65;;;;;;;-142.75;100.00;76282.91;5045821;28;20106;-64
2023/08/18 00:59:58;;;;;;;9.88;7.95;;;;;;;-142.75;100.00;76286.84;5046539;28;20420;-64
2023/08/18 01:02:24;;;;;;;11.32;8.07;;;;;;;-142.75;100.00;76278.97;5045573;28;20112;-64
2023/08/18 01:04:50;;;;;;;10.80;7.90;;;;;;;-142.75;100.00;76302.59;5027716;28;20385;-64
2023/08/18 01:07:15;;;;;;;12.15;7.97;;;;;;;-142.75;100.00;76292.75;5025984;28;20079;-64
2023/08/18 01:09:41;;;;;;;10.65;8.10;;;;;;;-142.75;100.00;76324.25;5025829;28;20072;-64
2023/08/18 01:12:16;;;;;;;10.13;7.68;;;;;;;-142.75;100.00;76322.28;5025686;28;20029;-64
2023/08/18 01:14:50;;;;;;;9.40;7.40;;;;;;;-142.75;100.00;76298.66;5026158;28;20552;-64
2023/08/18 01:17:23;;;;;;;10.88;7.65;;;;;;;-142.75;100.00;76314.41;5026205;28;20029;-64
2023/08/18 01:19:50;;;;;;;11.18;7.53;;;;;;;-142.75;100.00;76316.38;5025044;28;20091;-64
2023/08/18 01:22:17;;;;;;;9.80;7.30;;;;;;;-142.75;100.00;76312.44;5024837;28;20034;-63
2023/08/18 01:24:43;;;;;;;10.80;7.80;;;;;;;-142.75;100.00;76324.25;5024924;28;20579;-64
2023/08/18 01:27:08;;;;;;;11.05;7.95;;;;;;;-142.75;100.00;76326.22;5025222;28;20113;-64
2023/08/18 01:29:34;;;;;;;9.48;7.20;;;;;;;-142.75;100.00;76304.56;5025373;28;20025;-64
2023/08/18 01:32:02;;;;;;;10.05;7.63;;;;;;;-142.75;100.00;76306.53;5026626;28;20436;-64
2023/08/18 01:34:29;;;;;;;11.60;7.60;;;;;;;-142.75;100.00;76318.34;5044890;28;20523;-66
2023/08/18 01:36:57;;;;;;;11.73;7.95;;;;;;;-142.75;100.00;76304.56;5025320;28;20025;-64
2023/08/18 01:39:24;;;;;;;10.52;7.57;;;;;;;-142.75;100.00;76306.53;5025434;28;20021;-66
2023/08/18 01:41:51;;;;;;;10.35;7.90;;;;;;;-142.75;100.00;76306.53;5025589;28;20519;-64
2023/08/18 01:44:18;;;;;;;10.00;7.93;;;;;;;-142.75;100.00;76306.53;5025304;28;20229;-64
2023/08/18 01:46:44;;;;;;;9.23;7.28;;;;;;;-142.75;100.00;76314.41;5025886;28;20026;-64
2023/08/18 01:49:09;;;;;;;10.60;7.60;;;;;;;-142.75;100.00;76338.03;5024962;28;20384;-64
2023/08/18 01:51:35;;;;;;;10.07;7.20;;;;;;;-142.75;100.00;76341.97;5024997;28;20401;-64
2023/08/18 01:54:00;;;;;;;14.57;8.68;;;;;;;-142.75;100.00;76320.31;5024704;28;20018;-63
2023/08/18 01:56:25;;;;;;;10.32;7.43;;;;;;;-142.75;100.00;76310.47;5024682;28;20413;-65
2023/08/18 01:58:51;;;;;;;12.13;8.38;;;;;;;-142.75;100.00;76330.16;5024954;28;20025;-65
2023/08/18 02:01:16;;;;;;;10.20;8.00;;;;;;;-142.75;100.00;76306.53;5025140;28;20028;-64
2023/08/18 02:03:41;;;;;;;9.18;7.28;;;;;;;-142.75;100.00;76330.16;5024949;28;20111;-64
2023/08/18 02:06:08;;;;;;;10.93;7.78;;;;;;;-142.75;100.00;76334.09;5024173;28;20443;-65
2023/08/18 02:08:33;;;;;;;9.52;7.60;;;;;;;-142.75;100.00;76332.13;5023608;28;20116;-64
2023/08/18 02:11:05;;;;;;;9.68;7.20;;;;;;;-142.75;100.00;76318.34;5024727;28;20108;-63
2023/08/18 02:13:31;;;;;;;9.18;7.35;;;;;;;-142.75;100.00;76318.34;5025007;28;20053;-64
2023/08/18 02:15:57;;;;;;;10.30;7.18;;;;;;;-142.75;100.00;76304.56;5025544;28;20065;-65
2023/08/18 02:18:22;;;;;;;11.80;8.13;;;;;;;-142.75;100.00;76316.38;5025590;28;20505;-65
2023/08/18 02:20:54;;;;;;;9.23;7.53;;;;;;;-142.75;100.00;76310.47;5025129;28;20033;-64
2023/08/18 02:23:19;;;;;;;11.70;8.68;;;;;;;-142.75;100.00;76332.13;5024887;28;20040;-64
2023/08/18 02:25:45;;;;;;;11.02;7.78;;;;;;;-142.75;100.00;76312.44;5024938;28;20405;-64
2023/08/18 02:28:10;;;;;;;10.23;7.93;;;;;;;-142.75;100.00;76302.59;5024743;28;20021;-64
2023/08/18 02:30:35;;;;;;;10.25;7.45;;;;;;;-142.75;100.00;76310.47;5024699;28;20026;-64
2023/08/18 02:33:00;;;;;;;8.85;7.32;;;;;;;-142.75;100.00;76302.59;5027593;28;20025;-63
2023/08/18 02:35:26;;;;;;;11.13;8.30;;;;;;;-142.75;100.00;76312.44;5028243;28;20070;-63
2023/08/18 02:37:51;;;;;;;15.25;7.82;;;;;;;-142.75;100.00;76316.38;5028590;28;20029;-64
2023/08/18 02:40:17;;;;;;;9.27;7.45;;;;;;;-142.75;100.00;76316.38;5028077;28;20030;-64
2023/08/18 02:42:42;;;;;;;10.00;7.75;;;;;;;-142.75;100.00;76318.34;5028133;28;20067;-63
2023/08/18 02:45:07;;;;;;;10.70;7.78;;;;;;;-142.75;100.00;76310.47;5028780;28;20647;-64
2023/08/18 02:47:34;;;;;;;11.77;8.20;;;;;;;-142.75;100.00;76322.28;5028928;28;20029;-64
2023/08/18 02:49:59;;;;;;;11.10;8.32;;;;;;;-142.75;100.00;76320.31;5028535;28;20029;-64
2023/08/18 02:52:24;;;;;;;11.60;8.32;;;;;;;-142.75;100.00;76318.34;5028460;28;20029;-64
2023/08/18 02:54:50;;;;;;;11.32;7.88;;;;;;;-142.75;100.00;76326.22;5028235;28;20079;-64
2023/08/18 02:57:15;;;;;;;10.88;8.52;;;;;;;-142.75;100.00;76318.34;5028220;28;20103;-64
2023/08/18 02:59:41;;;;;;;13.18;7.85;;;;;;;-142.75;100.00;76330.16;5039074;28;20119;-64
2023/08/18 03:02:06;;;;;;;11.88;8.13;;;;;;;-142.75;100.00;76318.34;5048173;28;20039;-64
2023/08/18 03:04:31;;;;;;;11.68;8.65;;;;;;;-142.75;100.00;76318.34;5047696;28;20476;-64
2023/08/18 03:06:57;;;;;;;11.45;8.65;;;;;;;-142.75;100.00;76312.44;5047709;28;20476;-63
2023/08/18 03:09:22;;;;;;;14.80;8.73;;;;;;;-142.75;100.00;76322.28;5047668;28;20429;-64
2023/08/18 03:11:47;;;;;;;11.85;9.27;;;;;;;-142.75;100.00;76306.53;5047698;28;20439;-64
2023/08/18 03:14:13;;;;;;;12.95;8.95;;;;;;;-142.75;100.00;76316.38;5029717;28;20504;-63
2023/08/18 03:16:38;;;;;;;13.07;9.77;;;;;;;-142.75;100.00;76304.56;5028894;28;20052;-64
2023/08/18 03:19:04;;;;;;;13.13;9.00;;;;;;;-142.75;100.00;76326.22;5028066;28;20071;-64
2023/08/18 03:21:29;;;;;;;11.82;9.23;;;;;;;-142.75;100.00;76322.28;5027991;28;20029;-64
2023/08/18 03:23:55;;;;;;;12.70;8.85;;;;;;;-142.75;100.00;76336.06;5027750;28;20029;-63
2023/08/18 03:26:20;;;;;;;13.57;9.63;;;;;;;-142.75;100.00;76322.28;5027897;28;20025;-63
2023/08/18 03:28:45;;;;;;;12.75;9.25;;;;;;;-142.75;100.00;76322.28;5026836;28;20038;-64
2023/08/18 03:31:11;;;;;;;13.30;9.40;;;;;;;-142.75;100.00;76312.44;5027812;28;20017;-64
2023/08/18 03:33:36;;;;;;;14.88;9.40;;;;;;;-142.75;100.00;76298.66;5027026;28;20060;-65
2023/08/18 03:36:02;;;;;;;12.60;9.15;;;;;;;-142.75;100.00;76304.56;5027492;28;20014;-65
2023/08/18 03:38:29;;;;;;;14.27;10.50;;;;;;;-142.75;100.00;76294.72;5028057;28;20024;-65
2023/08/18 03:41:05;;;;;;;12.70;8.73;;;;;;;-142.75;100.00;76298.66;5027338;28;20029;-63
2023/08/18 03:43:32;;;;;;;17.92;9.20;;;;;;;-142.75;100.00;76298.66;5026477;28;20034;-64
2023/08/18 03:46:22;;;;;;;14.10;10.35;;;;;;;-142.75;100.00;76306.53;5027964;28;20029;-65
2023/08/18 03:48:48;;;;;;;14.65;10.65;;;;;;;-142.75;100.00;76322.28;5027852;28;20031;-65
2023/08/18 03:51:14;;;;;;;16.10;10.27;;;;;;;-142.75;100.00;76314.41;5027190;28;20025;-64
2023/08/18 03:53:40;;;;;;;15.48;9.45;;;;;;;-142.75;100.00;76298.66;5027195;28;20048;-64
2023/08/18 03:56:05;;;;;;;17.08;9.70;;;;;;;-142.75;100.00;76310.47;5026958;28;20485;-64
2023/08/18 03:58:30;;;;;;;13.80;9.80;;;;;;;-142.75;100.00;76302.59;5027666;28;20028;-64
2023/08/18 04:01:04;;;;;;;15.32;10.20;;;;;;;-142.75;100.00;76280.94;5027649;28;20673;-64
2023/08/18 04:03:30;;;;;;;13.65;10.25;;;;;;;-142.75;100.00;76300.63;5026771;28;20029;-64
2023/08/18 04:05:56;;;;;;;14.30;10.23;;;;;;;-142.75;100.00;76294.72;5026972;28;21230;-64
2023/08/18 04:08:21;;;;;;;14.52;10.13;;;;;;;-142.75;100.00;76310.47;5027292;28;20029;-64
2023/08/18 04:10:46;;;;;;;14.35;10.38;;;;;;;-142.75;100.00;76312.44;5026576;28;20029;-64
2023/08/18 04:13:13;;;;;;;14.32;9.93;;;;;;;-142.75;100.00;76312.44;5026690;28;20110;-64
2023/08/18 04:15:38;;;;;;;18.38;10.60;;;;;;;-142.75;100.00;76318.34;5026958;28;20096;-64
2023/08/18 04:18:04;;;;;;;14.75;10.40;;;;;;;-142.75;100.00;76314.41;5027663;28;20025;-64
2023/08/18 04:20:29;;;;;;;16.25;10.38;;;;;;;-142.75;100.00;76300.63;5026887;28;20037;-64
2023/08/18 04:22:55;;;;;;;13.32;10.82;;;;;;;-142.75;100.00;76330.16;5026672;28;20134;-64
2023/08/18 04:25:21;;;;;;;13.63;10.10;;;;;;;-142.75;100.00;76304.56;5025486;28;20413;-63
2023/08/18 04:27:46;;;;;;;13.30;10.13;;;;;;;-142.75;100.00;76296.69;5026557;28;20021;-66
2023/08/18 04:30:13;;;;;;;13.43;10.00;;;;;;;-142.75;100.00;76284.88;5025472;28;20509;-64
2023/08/18 04:32:38;;;;;;;14.93;9.80;;;;;;;-142.75;100.00;76296.69;5025347;28;20044;-64
2023/08/18 04:35:03;;;;;;;13.43;9.82;;;;;;;-142.75;100.00;76304.56;5024735;28;20029;-64
2023/08/18 04:37:30;;;;;;;14.82;9.90;;;;;;;-142.75;100.00;76304.56;5025555;28;20590;-64
2023/08/18 04:39:55;;;;;;;15.43;9.10;;;;;;;-142.75;100.00;76296.69;5026720;28;20374;-64
2023/08/18 04:42:20;;;;;;;11.85;8.60;;;;;;;-142.75;100.00;76292.75;5026139;28;20032;-63
2023/08/18 04:44:46;;;;;;;12.65;8.50;;;;;;;-142.75;100.00;76296.69;5026041;28;20040;-64
2023/08/18 04:47:11;;;;;;;12.18;7.80;;;;;;;-142.75;100.00;76290.78;5027082;28;20112;-64
2023/08/18 04:49:36;;;;;;;13.00;7.82;;;;;;;-142.75;100.00;76294.72;5026320;28;20111;-65
2023/08/18 04:52:02;;;;;;;13.05;7.50;;;;;;;-142.75;100.00;76308.50;5026083;28;20031;-64
2023/08/18 04:54:28;;;;;;;13.40;8.05;;;;;;;-142.75;100.00;76308.50;5025433;28;20022;-64
2023/08/18 04:56:58;;;;;;;11.60;8.20;;;;;;;-142.75;100.00;76294.72;5026257;28;20553;-64
2023/08/18 04:59:24;;;;;;;11.70;8.00;;;;;;;-142.75;100.00;76320.31;5026003;28;20029;-66
2023/08/18 05:01:51;;;;;;;12.63;9.40;;;;;;;-142.75;100.00;76326.22;5026020;28;20107;-65
2023/08/18 05:04:17;;;;;;;13.40;8.93;;;;;;;-142.75;100.00;76347.84;5025563;28;20025;-65
2023/08/18 05:06:43;;;;;;;12.65;8.38;;;;;;;-142.75;100.00;76343.94;5024368;28;20071;-64
2023/08/18 05:09:08;;;;;;;12.15;8.63;;;;;;;-142.75;100.00;76343.94;5026025;28;20029;-65
2023/08/18 05:11:34;;;;;;;12.60;8.75;;;;;;;-142.75;100.00;76326.22;5026120;28;20033;-65
2023/08/18 05:13:59;;;;;;;11.35;8.05;;;;;;;-142.75;100.00;76318.34;5045629;28;20406;-63
2023/08/18 05:16:24;;;;;;;11.77;8.35;;;;;;;-142.75;100.00;76316.38;5046182;28;20361;-64
2023/08/18 05:18:50;;;;;;;11.30;8.23;;;;;;;-142.75;100.00;76330.16;5045604;28;20017;-64
2023/08/18 05:21:15;;;;;;;12.77;8.57;;;;;;;-142.75;100.00;76300.63;5045502;28;20024;-64
2023/08/18 05:23:41;;;;;;;11.40;7.95;;;;;;;-142.75;100.00;76296.69;5044798;28;20516;-65
2023/08/18 05:26:07;;;;;;;12.45;8.02;;;;;;;-142.75;100.00;76296.69;5045481;28;20028;-64
2023/08/18 05:28:35;;;;;;;13.05;8.07;;;;;;;-142.75;100.00;76300.63;5044984;28;20025;-64
2023/08/18 05:31:01;;;;;;;12.65;7.57;;;;;;;-142.75;100.00;76288.81;5031287;28;20044;-65
2023/08/18 05:33:26;;;;;;;12.90;8.23;;;;;;;-142.75;100.00;76306.53;5024892;28;20021;-64
2023/08/18 05:35:52;;;;;;;15.40;8.85;;;;;;;-142.75;100.00;76298.66;5025135;28;20596;-64
2023/08/18 05:38:17;;;;;;;13.68;9.00;;;;;;;-142.75;100.00;76306.53;5025213;28;20028;-64
2023/08/18 05:40:42;;;;;;;12.48;8.88;;;;;;;-142.75;100.00;76304.56;5025553;28;20017;-64
2023/08/18 05:43:09;;;;;;;10.75;7.50;;;;;;;-142.75;100.00;76304.56;5025043;28;20290;-64
2023/08/18 05:45:38;;;;;;;12.30;7.72;;;;;;;-142.75;100.00;76308.50;5025472;28;20033;-65
2023/08/18 05:48:04;;;;;;;11.52;8.00;;;;;;;-142.75;100.00;76298.66;5026023;28;20025;-64
2023/08/18 05:50:30;;;;;;;14.13;8.45;;;;;;;-142.75;100.00;76282.91;5026841;28;20055;-65
2023/08/18 05:52:56;;;;;;;14.05;8.55;;;;;;;-142.75;100.00;76294.72;5045084;28;20484;-64
2023/08/18 05:55:22;;;;;;;11.38;8.57;;;;;;;-142.75;100.00;76302.59;5045029;28;20027;-64
2023/08/18 05:57:48;;;;;;;14.60;9.07;;;;;;;-142.75;100.00;76294.72;5044852;28;20035;-64
2023/08/18 06:00:14;;;;;;;17.40;9.43;;;;;;;-142.75;100.00;76306.53;5044427;28;20393;-64
2023/08/18 06:02:41;;;;;;;11.85;8.93;;;;;;;-142.75;100.00;76290.78;5044399;28;20032;-65
2023/08/18 06:05:06;;;;;;;13.23;8.80;;;;;;;-142.75;100.00;76284.88;5044203;28;20435;-65
2023/08/18 06:07:32;;;;;;;12.93;8.80;;;;;;;-142.75;100.00;76294.72;5044664;28;20033;-64
2023/08/18 06:09:57;;;;;;;14.60;10.07;;;;;;;-142.75;100.00;76271.09;5028788;28;20497;-65
2023/08/18 06:12:22;;;;;;;16.05;9.43;;;;;;;-142.75;100.00;76267.16;5024846;28;20048;-65
2023/08/18 06:14:48;;;;;;;15.25;10.20;;;;;;;-142.75;100.00;76261.25;5025386;28;20018;-66
2023/08/18 06:17:13;;;;;;;16.00;9.40;;;;;;;-142.75;100.00;76241.56;5025465;28;20052;-64
2023/08/18 06:19:38;;;;;;;14.18;9.20;;;;;;;-142.75;100.00;76231.72;5025035;28;20083;-64
2023/08/18 06:22:04;;;;;;;15.15;10.07;;;;;;;-142.75;100.00;76227.78;5024721;28;20112;-64
2023/08/18 06:24:29;;;;;;;16.23;8.70;;;;;;;-142.75;100.00;76215.97;5024935;28;20505;-62
2023/08/18 06:26:54;;;;;;;14.23;9.55;;;;;;;-142.75;100.00;76214.00;5024820;28;20060;-64
2023/08/18 06:29:20;;;;;;;14.55;10.48;;;;;;;-142.75;100.00;76210.06;5020439;28;20068;-63
2023/08/18 06:31:45;;;;;;;16.75;9.98;;;;;;;-142.75;100.00;76231.72;5026922;28;20028;-64
2023/08/18 06:34:11;;;;;;;17.60;9.85;;;;;;;-142.75;100.00;76231.72;5024631;28;20022;-64
2023/08/18 06:36:36;;;;;;;16.15;10.88;;;;;;;-142.75;100.00;76263.22;5025139;28;20030;-63
2023/08/18 06:39:02;;;;;;;16.25;10.60;;;;;;;-142.75;100.00;76255.34;5025032;28;20079;-64
2023/08/18 06:41:27;;;;;;;15.05;10.80;;;;;;;-142.75;100.00;76253.38;5024829;28;20120;-63
2023/08/18 06:43:52;;;;;;;13.25;9.73;;;;;;;-142.75;100.00;76251.41;5026794;28;20052;-63
2023/08/18 06:46:18;;;;;;;14.63;10.82;;;;;;;-142.75;100.00;76239.59;5027328;28;20091;-63
2023/08/18 06:48:43;;;;;;;16.40;11.07;;;;;;;-142.75;100.00;76225.81;5025513;28;20030;-64
2023/08/18 06:51:09;;;;;;;15.52;10.40;;;;;;;-142.75;100.00;76227.78;5026395;28;20088;-63
2023/08/18 06:53:34;;;;;;;15.32;10.20;;;;;;;-142.75;100.00;76231.72;5024843;28;20431;-64
2023/08/18 06:56:00;;;;;;;13.68;9.50;;;;;;;-142.75;100.00;76219.91;5025388;28;20053;-64
2023/08/18 06:58:26;;;;;;;14.35;9.88;;;;;;;-142.75;100.00;76215.97;5025243;28;20112;-64
2023/08/18 07:00:55;;;;;;;15.48;10.85;;;;;;;-142.75;100.00;76219.91;5024508;28;20497;-68
2023/08/18 07:03:20;;;;;;;17.08;10.38;;;;;;;-142.75;100.00;76245.50;5020451;28;20417;-64
2023/08/18 07:05:45;;;;;;;16.38;10.63;;;;;;;-142.75;100.00;76257.31;5026755;28;20057;-64
2023/08/18 07:08:11;;;;;;;16.08;10.70;;;;;;;-142.75;100.00;76253.38;5025970;28;20508;-64
2023/08/18 07:10:36;;;;;;;18.75;11.40;;;;;;;-142.75;100.00;76243.53;5025633;28;20036;-64
2023/08/18 07:13:03;;;;;;;16.05;10.75;;;;;;;-142.75;100.00;76245.50;5024812;28;20109;-64
2023/08/18 07:15:28;;;;;;;13.68;10.65;;;;;;;-142.75;100.00;76227.78;5025224;28;20105;-64
2023/08/18 07:17:53;;;;;;;17.45;10.63;;;;;;;-142.75;100.00;76221.88;5023942;28;20448;-64
2023/08/18 07:20:19;;;;;;;16.58;11.35;;;;;;;-142.75;100.00;76225.81;5030348;28;20022;-64
2023/08/18 07:22:44;;;;;;;14.55;10.77;;;;;;;-142.75;100.00;76192.38;5029536;28;20032;-64
2023/08/18 07:25:10;;;;;;;17.15;11.32;;;;;;;-142.75;100.00;76156.94;5029712;28;20029;-64
2023/08/18 07:27:36;;;;;;;17.75;11.63;;;;;;;-142.75;100.00;76113.63;5031126;28;20492;-63
2023/08/18 07:30:02;;;;;;;17.52;11.63;;;;;;;-142.75;100.00;76117.56;5030517;28;20033;-64
2023/08/18 07:32:28;;;;;;;18.30;11.75;;;;;;;-142.75;100.00;76097.88;5031146;28;20465;-64
2023/08/18 07:34:53;;;;;;;18.52;11.05;;;;;;;-142.75;100.00;76058.53;5030670;28;20104;-64
2023/08/18 07:37:18;;;;;;;17.73;11.50;;;;;;;-142.75;100.00;76056.56;5025857;28;20121;-65
2023/08/18 07:39:44;;;;;;;19.90;10.85;;;;;;;-142.75;100.00;76072.31;5024237;28;20053;-65
2023/08/18 07:42:09;;;;;;;18.33;12.18;;;;;;;-142.75;100.00;76062.47;5027528;28;20064;-66
2023/08/18 07:44:34;;;;;;;17.65;11.25;;;;;;;-142.75;100.00;76066.41;5022108;28;20045;-64
2023/08/18 07:47:00;;;;;;;17.08;10.52;;;;;;;-142.75;100.00;76040.81;5017663;28;20091;-63
2023/08/18 07:49:26;;;;;;;20.67;10.98;;;;;;;-142.75;100.00;76054.59;5023819;28;20032;-63
2023/08/18 07:51:51;;;;;;;17.35;11.57;;;;;;;-142.75;100.00;76054.59;5035315;28;20028;-63
2023/08/18 07:54:17;;;;;;;13.75;10.43;;;;;;;-142.75;100.00;76046.72;5038500;28;20021;-63
2023/08/18 07:56:42;;;;;;;16.98;10.38;;;;;;;-142.75;100.00;76040.81;5049587;28;20024;-63
2023/08/18 07:59:07;;;;;;;17.70;11.05;;;;;;;-142.75;100.00;76066.41;5049786;28;20037;-63
2023/08/18 08:01:33;;;;;;;17.65;10.98;;;;;;;-142.75;100.00;76058.53;5049484;28;20060;-63
2023/08/18 08:03:59;;;;;;;16.45;11.30;;;;;;;-142.75;100.00;76074.25;5047604;28;20024;-63
2023/08/18 08:06:24;;;;;;;23.08;12.43;;;;;;;-142.75;100.00;76101.81;5049116;28;20526;-63
2023/08/18 08:08:49;;;;;;;18.52;12.05;;;;;;;-142.75;100.00;76117.56;5049736;28;20079;-63
2023/08/18 08:11:15;;;;;;;19.52;13.68;;;;;;;-142.75;100.00;76139.22;5050571;28;20083;-63
2023/08/18 08:13:40;;;;;;;21.75;12.57;;;;;;;-142.75;100.00;76162.84;5049041;28;20021;-63
2023/08/18 08:16:06;;;;;;;20.80;13.57;;;;;;;-142.75;100.00;76151.03;5049674;28;20031;-62
2023/08/18 08:18:33;;;;;;;19.90;12.70;;;;;;;-142.75;100.00;76158.91;5049209;28;20112;-63
2023/08/18 08:21:00;;;;;;;22.65;12.90;;;;;;;-142.75;100.00;76147.09;5049098;28;20020;-63
2023/08/18 08:23:26;;;;;;;21.95;13.00;;;;;;;-142.75;100.00;76129.38;5048842;28;20036;-62
2023/08/18 08:25:51;;;;;;;27.90;15.30;;;;;;;-142.75;100.00;76109.69;5048986;28;20025;-63
2023/08/18 08:28:16;;;;;;;23.67;14.43;;;;;;;-142.75;100.00;76113.63;5048940;28;20062;-63
2023/08/18 08:30:44;;;;;;;29.65;14.70;;;;;;;-142.75;100.00;76101.81;5048824;28;20029;-63
2023/08/18 08:33:10;;;;;;;25.33;14.88;;;;;;;-142.75;100.00;76078.19;5048925;28;20029;-63
2023/08/18 08:35:36;;;;;;;26.75;15.65;;;;;;;-142.75;100.00;76078.19;5048836;28;20029;-63
2023/08/18 08:38:01;;;;;;;23.13;14.25;;;;;;;-142.75;100.00;76070.34;5048907;28;20036;-63
2023/08/18 08:40:26;;;;;;;23.48;14.00;;;;;;;-142.75;100.00;76054.59;5049422;28;20023;-63
2023/08/18 08:42:56;;;;;;;28.10;14.63;;;;;;;-142.75;100.00;76088.03;5049096;28;20476;-63
2023/08/18 08:45:23;;;;;;;23.23;14.82;;;;;;;-142.75;100.00;76093.94;5048693;28;20025;-63
2023/08/18 08:47:48;;;;;;;24.42;15.00;;;;;;;-142.75;100.00;76082.13;5048669;28;20025;-64
2023/08/18 08:50:16;;;;;;;26.63;15.13;;;;;;;-142.75;100.00;76066.41;5048703;28;20059;-63
2023/08/18 08:52:44;;;;;;;26.52;15.50;;;;;;;-142.75;100.00;76064.44;5048125;28;20112;-63
2023/08/18 08:55:12;;;;;;;23.75;15.00;;;;;;;-142.75;100.00;76038.84;5048108;28;20017;-63
2023/08/18 08:57:38;;;;;;;29.55;15.52;;;;;;;-142.75;100.00;76036.88;5042271;28;20032;-63
2023/08/18 09:00:04;;;;;;;27.23;16.25;;;;;;;-142.75;100.00;76046.72;5038764;28;20477;-63
2023/08/18 09:02:29;;;;;;;27.25;15.45;;;;;;;-142.75;100.00;76044.75;5048215;28;20492;-63
2023/08/18 09:05:00;;;;;;;24.65;15.30;;;;;;;-142.75;100.00;76017.19;5047986;28;20071;-63
2023/08/18 09:07:25;;;;;;;25.60;15.52;;;;;;;-142.75;100.00;76013.25;5027425;28;20029;-63
2023/08/18 09:09:50;;;;;;;26.38;16.10;;;;;;;-142.75;100.00;76001.44;5028780;28;20503;-63
2023/08/18 09:12:17;;;;;;;23.13;16.02;;;;;;;-142.75;100.00;76007.34;5027931;28;20028;-64
2023/08/18 09:14:43;;;;;;;25.27;14.63;;;;;;;-142.75;100.00;76007.34;5039767;28;20048;-64
2023/08/18 09:17:09;;;;;;;26.50;16.25;;;;;;;-142.75;100.00;76027.03;5048607;28;20532;-64
2023/08/18 09:19:34;;;;;;;24.38;15.65;;;;;;;-142.75;100.00;76027.03;5035970;28;20113;-64
2023/08/18 09:22:04;;;;;;;27.05;15.20;;;;;;;-142.75;100.00;76013.25;5035853;28;20018;-64
2023/08/18 09:24:31;;;;;;;25.45;15.15;;;;;;;-142.75;100.00;76019.16;5027596;28;20057;-64
2023/08/18 09:27:10;;;;;;;21.83;14.65;;;;;;;-142.75;100.00;76023.09;5027111;28;20408;-63
2023/08/18 09:29:36;;;;;;;25.85;14.90;;;;;;;-142.75;100.00;76015.22;5027980;28;20018;-64
2023/08/18 09:32:02;;;;;;;25.63;15.98;;;;;;;-142.75;100.00;76015.22;5026540;28;20027;-63
2023/08/18 09:34:27;;;;;;;24.70;16.13;;;;;;;-142.75;100.00;76013.25;5028664;28;20093;-63
2023/08/18 09:36:54;;;;;;;26.60;15.95;;;;;;;-142.75;100.00;75989.63;5028030;28;20117;-64
2023/08/18 09:39:25;;;;;;;27.75;15.98;;;;;;;-142.75;100.00;75983.72;5027859;28;20436;-63
2023/08/18 09:41:51;;;;;;;25.75;15.65;;;;;;;-142.75;100.00;75971.91;5027043;28;20025;-64
2023/08/18 09:44:18;;;;;;;28.70;15.57;;;;;;;-142.75;100.00;75958.16;5027077;28;20715;-63
2023/08/18 09:46:50;;;;;;;23.13;15.48;;;;;;;-142.75;100.00;75920.75;5028530;28;20025;-64
2023/08/18 09:49:20;;;;;;;29.95;17.52;;;;;;;-142.75;100.00;75910.91;5028334;28;20408;-64
2023/08/18 09:51:52;;;;;;;31.35;17.67;;;;;;;-142.75;100.00;75906.97;5028200;28;20490;-64
2023/08/18 09:54:20;;;;;;;26.33;16.98;;;;;;;-142.75;100.00;75960.13;5028167;28;20017;-64
2023/08/18 09:56:50;;;;;;;29.48;17.88;;;;;;;-142.75;100.00;75975.84;5027484;28;20025;-63
2023/08/18 09:59:31;;;;;;;24.83;15.68;;;;;;;-142.75;100.00;75960.13;5027677;28;20036;-63
2023/08/18 10:01:57;;;;;;;26.95;17.00;;;;;;;-142.75;100.00;75924.69;5027044;28;20519;-63
2023/08/18 10:04:24;;;;;;;29.75;17.20;;;;;;;-142.75;100.00;75908.94;5027771;28;20025;-64
2023/08/18 10:06:51;;;;;;;29.23;16.85;;;;;;;-142.75;100.00;75893.19;5027554;28;20032;-64
2023/08/18 10:09:16;;;;;;;230.15;28.58;;;;;;;-142.75;100.00;75889.25;5026616;28;20456;-64
2023/08/18 10:11:42;;;;;;;31.00;16.80;;;;;;;-142.75;100.00;75861.69;5027405;28;20049;-64
2023/08/18 10:14:08;;;;;;;26.90;16.85;;;;;;;-142.75;100.00;75849.91;5027275;28;20109;-63
2023/08/18 10:16:35;;;;;;;32.42;18.58;;;;;;;-142.75;100.00;75885.31;5027931;28;20025;-64
2023/08/18 10:19:00;;;;;;;28.77;17.38;;;;;;;-142.75;100.00;75885.31;5033896;28;20079;-64
2023/08/18 10:21:26;;;;;;;30.75;17.73;;;;;;;-142.75;100.00;75844.00;5038616;28;20480;-65
2023/08/18 10:23:53;;;;;;;29.45;17.80;;;;;;;-142.75;100.00;75847.94;5047498;28;20063;-64
2023/08/18 10:26:18;;;;;;;29.10;17.00;;;;;;;-142.75;100.00;75842.03;5047655;28;20108;-64
2023/08/18 10:28:44;;;;;;;29.52;17.02;;;;;;;-142.75;100.00;75804.63;5029572;28;20029;-62
2023/08/18 10:31:11;;;;;;;28.40;18.10;;;;;;;-142.75;100.00;75786.91;5026993;28;20033;-64
2023/08/18 10:33:47;;;;;;;28.63;18.05;;;;;;;-142.75;100.00;75777.06;5027262;28;20109;-64
2023/08/18 10:36:26;;;;;;;32.97;19.00;;;;;;;-142.75;100.00;75759.38;5027604;28;20116;-64
2023/08/18 10:38:53;;;;;;;27.27;18.65;;;;;;;-142.75;100.00;75731.81;5033391;28;20626;-64
2023/08/18 10:41:30;;;;;;;30.73;19.52;;;;;;;-142.75;100.00;75696.38;5046808;28;20492;-64
2023/08/18 10:43:57;;;;;;;24.70;17.02;;;;;;;-142.75;100.00;75714.09;5046354;28;20032;-65
2023/08/18 10:46:36;;;;;;;29.17;17.15;;;;;;;-142.75;100.00;75716.06;5038688;28;20022;-65
2023/08/18 10:49:02;;;;;;;25.52;17.33;;;;;;;-142.75;100.00;75743.63;5024676;28;20034;-64
2023/08/18 10:51:28;;;;;;;25.45;17.63;;;;;;;-142.75;100.00;75747.56;5025610;28;20112;-65
2023/08/18 10:53:53;;;;;;;25.95;18.20;;;;;;;-142.75;100.00;75773.13;5040791;28;20021;-64